createdAt,value
2023-04-17T00:01:31.495Z,56.73
2023-04-17T00:03:58.562Z,56.71
2023-04-17T00:06:27.216Z,56.93
2023-04-17T00:08:54.203Z,56.76
2023-04-17T00:11:22.504Z,60.13
2023-04-17T00:13:49.269Z,59.14
2023-04-17T00:16:15.973Z,59.16
2023-04-17T00:18:42.633Z,62.13
2023-04-17T00:21:09.771Z,61.34
2023-04-17T00:23:36.521Z,60.40
2023-04-17T00:26:03.381Z,58.97
2023-04-17T00:28:30.508Z,57.58
2023-04-17T00:30:59.027Z,58.50
2023-04-17T00:33:25.676Z,59.73
2023-04-17T00:45:17.306Z,59.00
2023-04-17T00:47:44.085Z,57.89
2023-04-17T00:50:11.044Z,58.33
2023-04-17T00:52:38.098Z,59.61
2023-04-17T00:55:05.137Z,58.01
2023-04-17T00:57:31.956Z,59.35
2023-04-17T00:59:58.999Z,57.61
2023-04-17T01:02:26.917Z,57.27
2023-04-17T01:04:53.641Z,57.87
2023-04-17T01:07:20.310Z,57.51
2023-04-17T01:09:47.911Z,57.66
2023-04-17T01:12:22.209Z,57.27
2023-04-17T01:14:56.525Z,57.70
2023-04-17T01:17:26.235Z,60.13
2023-04-17T01:19:53.950Z,58.92
2023-04-17T01:22:21.381Z,58.79
2023-04-17T01:24:51.457Z,59.27
2023-04-17T01:27:18.303Z,58.67
2023-04-17T01:29:45.957Z,57.52
2023-04-17T01:32:12.642Z,56.48
2023-04-17T01:41:23.048Z,56.08
2023-04-17T01:43:56.352Z,55.35
2023-04-17T01:46:23.178Z,55.57
2023-04-17T01:48:50.174Z,56.34
2023-04-17T01:51:16.801Z,57.04
2023-04-17T01:53:43.330Z,56.04
2023-04-17T01:56:09.972Z,56.41
2023-04-17T01:58:36.850Z,56.84
2023-04-17T02:01:04.537Z,57.29
2023-04-17T02:03:32.716Z,57.88
2023-04-17T02:05:59.748Z,57.05
2023-04-17T02:08:27.094Z,55.92
2023-04-17T02:10:53.643Z,57.92
2023-04-17T02:13:20.643Z,58.03
2023-04-17T02:15:50.197Z,57.66
2023-04-17T02:18:17.045Z,57.67
2023-04-17T02:20:43.802Z,56.16
2023-04-17T02:23:10.474Z,57.37
2023-04-17T02:25:37.133Z,56.97
2023-04-17T02:28:04.310Z,58.20
2023-04-17T02:30:31.100Z,57.48
2023-04-17T02:32:58.682Z,58.25
2023-04-17T02:35:30.884Z,58.35
2023-04-17T02:37:58.205Z,58.55
2023-04-17T02:40:26.361Z,58.83
2023-04-17T02:42:59.890Z,56.84
2023-04-17T02:45:26.793Z,55.80
2023-04-17T02:47:53.790Z,56.05
2023-04-17T02:50:20.944Z,55.53
2023-04-17T02:53:01.311Z,55.54
2023-04-17T02:55:28.189Z,56.12
2023-04-17T02:57:54.786Z,56.37
2023-04-17T03:00:22.927Z,55.91
2023-04-17T03:02:50.123Z,55.85
2023-04-17T03:05:20.407Z,55.78
2023-04-17T03:07:47.257Z,56.41
2023-04-17T03:10:14.524Z,59.13
2023-04-17T03:12:41.476Z,58.55
2023-04-17T03:15:09.046Z,57.92
2023-04-17T03:17:35.987Z,59.61
2023-04-17T03:20:04.142Z,58.82
2023-04-17T03:22:33.679Z,58.57
2023-04-17T03:25:00.704Z,58.42
2023-04-17T03:27:35.296Z,58.96
2023-04-17T03:30:03.471Z,57.92
2023-04-17T03:32:32.875Z,58.24
2023-04-17T03:34:59.539Z,58.26
2023-04-17T03:37:26.960Z,59.18
2023-04-17T03:39:55.643Z,60.54
2023-04-17T03:42:26.420Z,59.16
2023-04-17T03:44:53.123Z,59.71
2023-04-17T03:47:19.732Z,57.67
2023-04-17T03:49:48.943Z,58.73
2023-04-17T03:52:17.236Z,59.07
2023-04-17T03:54:46.520Z,57.00
2023-04-17T03:57:13.174Z,58.04
2023-04-17T03:59:39.734Z,59.45
2023-04-17T04:02:07.119Z,58.57
2023-04-17T04:04:36.209Z,57.08
2023-04-17T04:07:10.676Z,57.26
2023-04-17T04:09:37.868Z,59.75
2023-04-17T04:12:06.360Z,59.77
2023-04-17T04:14:41.630Z,57.41
2023-04-17T04:17:09.478Z,56.96
2023-04-17T04:19:36.257Z,56.60
2023-04-17T04:22:06.673Z,57.60
2023-04-17T04:24:43.551Z,58.14
2023-04-17T04:27:13.156Z,57.58
2023-04-17T04:29:40.079Z,57.58
2023-04-17T04:32:09.693Z,56.44
2023-04-17T04:34:42.022Z,60.19
2023-04-17T04:37:08.784Z,58.54
2023-04-17T04:39:41.845Z,59.33
2023-04-17T04:42:12.812Z,59.68
2023-04-17T04:44:56.067Z,58.58
2023-04-17T04:47:25.971Z,58.11
2023-04-17T04:49:53.776Z,59.38
2023-04-17T04:52:21.872Z,59.61
2023-04-17T04:54:50.306Z,57.95
2023-04-17T04:57:17.227Z,56.95
2023-04-17T04:59:46.669Z,57.89
2023-04-17T05:02:26.255Z,58.17
2023-04-17T05:04:53.824Z,58.82
2023-04-17T05:07:20.764Z,57.62
2023-04-17T05:09:47.974Z,57.32
2023-04-17T05:12:16.295Z,57.39
2023-04-17T05:14:44.046Z,57.29
2023-04-17T05:17:11.020Z,57.19
2023-04-17T05:19:38.500Z,56.60
2023-04-17T05:22:08.361Z,58.41
2023-04-17T05:24:42.109Z,57.66
2023-04-17T05:27:09.693Z,57.58
2023-04-17T05:29:37.508Z,56.18
2023-04-17T05:32:04.525Z,54.64
2023-04-17T05:34:53.931Z,54.88
2023-04-17T05:37:24.713Z,55.43
2023-04-17T05:39:51.631Z,54.76
2023-04-17T05:42:18.398Z,56.54
2023-04-17T05:44:45.930Z,56.33
2023-04-17T05:47:12.676Z,55.85
2023-04-17T05:49:39.384Z,58.38
2023-04-17T05:52:06.034Z,59.76
2023-04-17T05:54:36.539Z,58.53
2023-04-17T05:57:03.594Z,56.65
2023-04-17T05:59:30.434Z,55.96
2023-04-17T06:02:00.037Z,55.17
2023-04-17T06:04:27.022Z,56.96
2023-04-17T06:06:53.955Z,57.69
2023-04-17T06:09:21.427Z,56.82
2023-04-17T06:11:49.294Z,56.60
2023-04-17T06:14:16.668Z,57.37
2023-04-17T06:16:43.977Z,59.08
2023-04-17T06:19:11.392Z,58.13
2023-04-17T06:21:38.477Z,57.34
2023-04-17T06:24:05.773Z,56.58
2023-04-17T06:26:32.600Z,56.39
2023-04-17T06:29:03.083Z,57.40
2023-04-17T06:31:32.971Z,57.40
2023-04-17T06:33:59.754Z,57.42
2023-04-17T06:36:33.423Z,59.07
2023-04-17T06:39:03.758Z,58.73
2023-04-17T06:41:30.938Z,59.83
2023-04-17T06:43:57.735Z,59.20
2023-04-17T06:46:27.396Z,58.57
2023-04-17T06:48:58.146Z,56.83
2023-04-17T06:51:27.648Z,57.22
2023-04-17T06:53:55.372Z,57.95
2023-04-17T06:56:24.954Z,57.49
2023-04-17T06:58:53.124Z,57.51
2023-04-17T07:01:22.751Z,57.11
2023-04-17T07:03:49.688Z,57.03
2023-04-17T07:06:17.055Z,57.85
2023-04-17T07:08:43.777Z,59.13
2023-04-17T07:11:10.544Z,56.71
2023-04-17T07:13:37.187Z,58.11
2023-04-17T07:16:06.070Z,56.75
2023-04-17T07:18:33.052Z,55.37
2023-04-17T07:21:00.055Z,56.73
2023-04-17T07:23:28.958Z,56.68
2023-04-17T07:25:55.554Z,58.50
2023-04-17T07:28:22.415Z,59.17
2023-04-17T07:30:49.491Z,57.00
2023-04-17T07:33:16.269Z,55.09
2023-04-17T07:35:43.435Z,55.55
2023-04-17T07:38:10.091Z,54.87
2023-04-17T07:40:37.176Z,54.14
2023-04-17T07:43:04.183Z,54.09
2023-04-17T07:45:32.218Z,55.20
2023-04-17T07:47:58.919Z,55.88
2023-04-17T07:50:25.813Z,55.05
2023-04-17T07:52:52.591Z,53.81
2023-04-17T07:55:21.507Z,53.65
2023-04-17T07:57:51.498Z,55.00
2023-04-17T08:00:19.027Z,56.05
2023-04-17T08:02:46.047Z,55.69
2023-04-17T08:05:15.234Z,54.68
2023-04-17T08:07:43.366Z,56.21
2023-04-17T08:10:10.573Z,55.71
2023-04-17T08:12:38.528Z,56.92
2023-04-17T08:15:05.648Z,56.25
2023-04-17T08:17:33.337Z,56.08
2023-04-17T08:20:02.114Z,54.47
2023-04-17T08:22:29.226Z,55.06
2023-04-17T08:25:01.756Z,55.48
2023-04-17T08:27:28.766Z,56.09
2023-04-17T08:29:55.455Z,55.42
2023-04-17T08:32:22.167Z,54.78
2023-04-17T08:34:48.974Z,54.09
2023-04-17T08:37:16.327Z,54.48
2023-04-17T08:39:43.231Z,53.85
2023-04-17T08:42:15.305Z,52.51
2023-04-17T08:44:43.364Z,53.10
2023-04-17T08:47:10.085Z,53.43
2023-04-17T08:49:36.832Z,52.38
2023-04-17T08:52:05.538Z,53.66
2023-04-17T08:54:35.088Z,54.46
2023-04-17T08:57:05.938Z,55.12
2023-04-17T08:59:33.199Z,54.99
2023-04-17T09:02:08.211Z,55.13
2023-04-17T09:04:38.063Z,54.54
2023-04-17T09:07:07.144Z,53.12
2023-04-17T09:09:53.890Z,52.62
2023-04-17T09:12:22.861Z,53.22
2023-04-17T09:14:50.227Z,52.15
2023-04-17T09:17:18.900Z,51.34
2023-04-17T09:20:07.252Z,50.08
2023-04-17T09:22:35.281Z,49.64
2023-04-17T09:25:05.295Z,50.04
2023-04-17T09:27:32.589Z,49.15
2023-04-17T09:30:05.099Z,48.43
2023-04-17T09:32:34.385Z,48.88
2023-04-17T09:35:03.490Z,49.36
2023-04-17T09:37:50.030Z,49.76
2023-04-17T09:40:18.819Z,49.59
2023-04-17T09:43:03.058Z,49.09
2023-04-17T09:45:36.826Z,48.97
2023-04-17T09:48:07.935Z,48.10
2023-04-17T09:50:36.615Z,49.67
2023-04-17T09:53:05.390Z,48.14
2023-04-17T09:55:33.882Z,47.46
2023-04-17T09:58:05.138Z,46.91
2023-04-17T10:00:33.626Z,47.21
2023-04-17T10:03:00.789Z,45.71
2023-04-17T10:05:32.446Z,45.76
2023-04-17T10:07:59.688Z,47.96
2023-04-17T10:10:30.084Z,45.63
2023-04-17T10:12:59.397Z,45.09
2023-04-17T10:15:27.040Z,45.69
2023-04-17T10:17:57.923Z,46.21
2023-04-17T10:20:28.355Z,45.74
2023-04-17T10:22:56.355Z,44.49
2023-04-17T10:25:26.922Z,45.57
2023-04-17T10:27:58.556Z,46.16
2023-04-17T10:33:59.737Z,43.40
2023-04-17T10:37:01.542Z,44.79
2023-04-17T10:39:28.460Z,45.97
2023-04-17T10:42:03.671Z,44.87
2023-04-17T10:44:34.302Z,44.25
2023-04-17T10:47:08.188Z,43.63
2023-04-17T10:49:59.466Z,42.85
2023-04-17T10:52:52.245Z,43.79
2023-04-17T10:55:23.174Z,41.86
2023-04-17T10:58:09.962Z,43.15
2023-04-17T11:01:15.353Z,41.78
2023-04-17T11:03:46.995Z,41.15
2023-04-17T11:06:22.607Z,41.92
2023-04-17T11:09:06.074Z,41.69
2023-04-17T11:12:21.308Z,43.41
2023-04-17T11:15:06.987Z,42.11
2023-04-17T11:18:00.885Z,42.49
2023-04-17T11:23:19.069Z,41.13
2023-04-17T11:25:46.214Z,40.71
2023-04-17T11:28:13.069Z,40.78
2023-04-17T11:30:44.370Z,39.94
2023-04-17T11:33:12.687Z,41.14
2023-04-17T11:35:42.277Z,40.11
2023-04-17T11:38:20.684Z,40.84
2023-04-17T11:41:01.997Z,40.95
2023-04-17T11:43:32.475Z,41.19
2023-04-17T11:46:01.980Z,40.64
2023-04-17T11:48:31.448Z,41.39
2023-04-17T11:51:01.882Z,40.23
2023-04-17T11:53:29.902Z,39.55
2023-04-17T11:56:17.963Z,40.04
2023-04-17T11:58:53.082Z,39.51
2023-04-17T12:01:25.299Z,38.66
2023-04-17T12:04:01.224Z,37.96
2023-04-17T12:06:38.949Z,37.46
2023-04-17T12:09:07.237Z,37.52
2023-04-17T12:11:36.803Z,36.87
2023-04-17T12:14:05.201Z,37.27
2023-04-17T12:16:35.129Z,37.34
2023-04-17T12:19:02.123Z,37.93
2023-04-17T12:21:29.285Z,36.76
2023-04-17T12:23:56.016Z,39.29
2023-04-17T12:26:25.093Z,37.90
2023-04-17T12:28:52.050Z,37.32
2023-04-17T12:31:18.712Z,36.79
2023-04-17T12:33:47.382Z,36.93
2023-04-17T12:36:14.250Z,36.63
2023-04-17T12:38:43.139Z,38.00
2023-04-17T12:41:12.500Z,37.18
2023-04-17T12:43:41.279Z,37.30
2023-04-17T12:46:08.020Z,36.57
2023-04-17T12:48:35.354Z,35.87
2023-04-17T12:51:03.460Z,35.51
2023-04-17T12:53:30.220Z,36.31
2023-04-17T12:55:58.025Z,35.92
2023-04-17T12:58:25.768Z,36.32
2023-04-17T13:00:52.736Z,36.23
2023-04-17T13:03:19.499Z,35.00
2023-04-17T13:05:47.060Z,35.10
2023-04-17T13:08:15.190Z,35.58
2023-04-17T13:10:42.626Z,35.19
2023-04-17T13:13:09.795Z,35.45
2023-04-17T13:15:37.002Z,35.24
2023-04-17T13:18:04.148Z,34.60
2023-04-17T13:20:33.112Z,34.82
2023-04-17T13:23:00.011Z,33.96
2023-04-17T13:25:26.787Z,34.31
2023-04-17T13:27:55.797Z,33.98
2023-04-17T13:30:23.036Z,34.25
2023-04-17T13:32:49.992Z,33.78
2023-04-17T13:35:16.877Z,33.96
2023-04-17T13:37:43.588Z,33.66
2023-04-17T13:40:10.818Z,33.33
2023-04-17T13:42:37.981Z,33.52
2023-04-17T13:45:07.456Z,33.74
2023-04-17T13:47:34.155Z,33.30
2023-04-17T13:50:03.580Z,33.36
2023-04-17T13:52:30.336Z,33.12
2023-04-17T13:54:59.694Z,32.71
2023-04-17T13:57:26.947Z,31.88
2023-04-17T13:59:53.664Z,32.38
2023-04-17T14:02:30.587Z,31.86
2023-04-17T14:05:08.844Z,31.87
2023-04-17T14:07:35.553Z,31.82
2023-04-17T14:10:03.345Z,32.54
2023-04-17T14:12:44.186Z,31.54
2023-04-17T14:15:11.166Z,31.51
2023-04-17T14:17:43.354Z,31.43
2023-04-17T14:20:19.365Z,30.95
2023-04-17T14:22:49.092Z,31.24
2023-04-17T14:25:24.072Z,31.52
2023-04-17T14:27:57.152Z,31.26
2023-04-17T14:30:26.151Z,31.06
2023-04-17T14:32:53.507Z,31.01
2023-04-17T14:35:20.847Z,30.03
2023-04-17T14:37:47.431Z,30.69
2023-04-17T14:40:14.247Z,30.43
2023-04-17T14:42:53.673Z,29.23
2023-04-17T14:45:21.386Z,28.89
2023-04-17T14:47:48.125Z,29.56
2023-04-17T14:50:14.953Z,29.40
2023-04-17T14:52:41.907Z,30.15
2023-04-17T14:55:09.109Z,30.82
2023-04-17T14:57:35.684Z,29.76
2023-04-17T15:00:03.057Z,29.77
2023-04-17T15:02:30.985Z,29.71
2023-04-17T15:05:06.889Z,30.49
2023-04-17T15:07:33.931Z,29.56
2023-04-17T15:10:00.852Z,30.04
2023-04-17T15:12:27.833Z,28.55
2023-04-17T15:14:59.121Z,28.25
2023-04-17T15:17:25.837Z,28.94
2023-04-17T15:19:55.525Z,28.81
2023-04-17T15:22:22.219Z,28.62
2023-04-17T15:24:48.848Z,28.10
2023-04-17T15:27:15.453Z,27.86
2023-04-17T15:29:42.139Z,28.72
2023-04-17T15:32:08.899Z,29.63
2023-04-17T15:34:35.602Z,30.10
2023-04-17T15:37:02.256Z,29.11
2023-04-17T15:39:29.172Z,28.06
2023-04-17T15:41:57.205Z,28.29
2023-04-17T15:44:24.380Z,27.31
2023-04-17T15:46:56.284Z,26.80
2023-04-17T15:49:24.882Z,26.96
2023-04-17T15:51:55.918Z,27.24
2023-04-17T15:54:23.078Z,27.53
2023-04-17T15:56:49.808Z,28.27
2023-04-17T15:59:16.389Z,28.00
2023-04-17T16:01:44.052Z,27.83
2023-04-17T16:04:11.178Z,27.91
2023-04-17T16:06:37.816Z,27.47
2023-04-17T16:09:04.574Z,26.36
2023-04-17T16:11:32.328Z,26.86
2023-04-17T16:13:58.974Z,27.15
2023-04-17T16:16:28.017Z,27.11
2023-04-17T16:18:57.879Z,26.83
2023-04-17T16:21:25.086Z,26.91
2023-04-17T16:23:52.003Z,27.52
2023-04-17T16:26:18.521Z,26.27
2023-04-17T16:28:46.401Z,26.22
2023-04-17T16:31:16.912Z,26.50
2023-04-17T16:33:52.196Z,26.97
2023-04-17T16:36:23.056Z,27.58
2023-04-17T16:39:03.616Z,28.42
2023-04-17T16:41:31.165Z,28.22
2023-04-17T16:44:11.193Z,28.28
2023-04-17T16:49:28.030Z,29.57
2023-04-17T16:51:55.718Z,28.82
2023-04-17T16:54:23.375Z,28.87
2023-04-17T16:57:07.561Z,28.92
2023-04-17T16:59:40.379Z,29.68
2023-04-17T17:05:13.655Z,29.96
2023-04-17T17:07:48.212Z,30.00
2023-04-17T17:10:35.221Z,29.70
2023-04-17T17:13:19.060Z,30.11
2023-04-17T17:15:52.450Z,29.77
2023-04-17T17:18:24.362Z,30.07
2023-04-17T17:20:56.040Z,29.59
2023-04-17T17:23:33.616Z,29.50
2023-04-17T17:26:01.275Z,29.76
2023-04-17T17:28:27.873Z,29.78
2023-04-17T17:31:03.819Z,29.89
2023-04-17T17:33:32.262Z,30.15
2023-04-17T17:35:59.178Z,31.43
2023-04-17T17:38:32.852Z,31.94
2023-04-17T17:41:50.545Z,32.36
2023-04-17T17:44:17.611Z,31.85
2023-04-17T17:46:44.997Z,32.09
2023-04-17T17:49:11.723Z,31.64
2023-04-17T17:51:38.524Z,32.03
2023-04-17T17:54:07.346Z,34.08
2023-04-17T17:56:34.942Z,35.62
2023-04-17T17:59:02.975Z,35.62
2023-04-17T18:01:29.636Z,36.86
2023-04-17T18:03:56.543Z,36.50
2023-04-17T18:06:23.314Z,36.19
2023-04-17T18:08:56.806Z,36.42
2023-04-17T18:11:27.250Z,37.99
2023-04-17T18:13:56.281Z,38.69
2023-04-17T18:16:23.149Z,38.57
2023-04-17T18:18:49.806Z,40.04
2023-04-17T18:21:16.326Z,39.40
2023-04-17T18:23:43.462Z,39.25
2023-04-17T18:26:10.337Z,41.08
2023-04-17T18:28:37.041Z,41.52
2023-04-17T18:31:03.686Z,42.20
2023-04-17T18:33:30.735Z,41.92
2023-04-17T18:35:57.342Z,42.55
2023-04-17T18:38:24.378Z,42.53
2023-04-17T18:40:57.065Z,42.37
2023-04-17T18:43:23.775Z,42.73
2023-04-17T18:45:51.703Z,43.02
2023-04-17T18:48:20.425Z,43.37
2023-04-17T18:50:47.610Z,43.45
2023-04-17T18:53:14.508Z,44.39
2023-04-17T18:55:41.296Z,44.28
2023-04-17T18:58:07.865Z,42.68
2023-04-17T19:00:34.532Z,43.91
2023-04-17T19:03:02.385Z,43.07
2023-04-17T19:05:29.329Z,45.36
2023-04-17T19:07:56.238Z,43.68
2023-04-17T19:10:23.090Z,43.71
2023-04-17T19:12:49.694Z,42.40
2023-04-17T19:15:17.684Z,43.08
2023-04-17T19:17:44.343Z,43.48
2023-04-17T19:20:11.237Z,44.49
2023-04-17T19:22:38.613Z,43.60
2023-04-17T19:25:05.521Z,43.88
2023-04-17T19:27:32.291Z,43.43
2023-04-17T19:29:58.839Z,44.32
2023-04-17T19:32:25.922Z,44.05
2023-04-17T19:34:52.537Z,43.39
2023-04-17T19:37:19.242Z,43.82
2023-04-17T19:39:45.941Z,43.74
2023-04-17T19:42:12.528Z,43.80
2023-04-17T19:44:39.107Z,44.99
2023-04-17T19:47:06.202Z,44.99
2023-04-17T19:49:32.949Z,46.03
2023-04-17T19:52:02.950Z,46.86
2023-04-17T19:54:29.572Z,46.98
2023-04-17T19:56:56.298Z,48.04
2023-04-17T19:59:25.912Z,45.73
2023-04-17T20:01:52.749Z,46.01
2023-04-17T20:04:19.758Z,46.05
2023-04-17T20:06:46.546Z,46.98
2023-04-17T20:09:14.863Z,47.99
2023-04-17T20:11:42.163Z,47.99
2023-04-17T20:14:08.796Z,49.01
2023-04-17T20:16:35.842Z,48.75
2023-04-17T20:19:02.515Z,48.07
2023-04-17T20:21:29.257Z,47.20
2023-04-17T20:23:56.171Z,48.11
2023-04-17T20:26:22.845Z,49.06
2023-04-17T20:28:49.406Z,47.30
2023-04-17T20:31:16.383Z,47.55
2023-04-17T20:33:43.092Z,48.82
2023-04-17T20:36:12.504Z,49.30
2023-04-17T20:38:39.566Z,49.00
2023-04-17T20:41:06.197Z,48.95
2023-04-17T20:43:32.947Z,48.61
2023-04-17T20:45:59.817Z,50.02
2023-04-17T20:48:26.783Z,49.88
2023-04-17T20:50:53.592Z,49.71
2023-04-17T20:53:20.362Z,50.12
2023-04-17T20:55:47.425Z,49.23
2023-04-17T20:58:13.975Z,48.45
2023-04-17T21:00:50.706Z,48.46
2023-04-17T21:03:24.917Z,48.84
2023-04-17T21:05:51.772Z,48.95
2023-04-17T21:08:18.416Z,49.25
2023-04-17T21:10:45.023Z,50.66
2023-04-17T21:13:11.586Z,49.72
2023-04-17T21:15:38.259Z,49.05
2023-04-17T21:18:05.152Z,49.51
2023-04-17T21:20:33.510Z,48.89
2023-04-17T21:23:00.324Z,48.92
2023-04-17T21:25:27.515Z,49.19
2023-04-17T21:27:54.450Z,50.03
2023-04-17T21:30:22.453Z,48.71
2023-04-17T21:32:49.074Z,49.70
2023-04-17T21:35:15.740Z,50.16
2023-04-17T21:37:42.333Z,49.35
2023-04-17T21:40:09.288Z,49.71
2023-04-17T21:42:36.107Z,48.77
2023-04-17T21:45:02.714Z,49.45
2023-04-17T21:47:29.297Z,51.10
2023-04-17T21:49:56.065Z,49.77
2023-04-17T21:52:22.622Z,50.55
2023-04-17T21:54:49.198Z,50.58
2023-04-17T21:57:15.786Z,49.89
2023-04-17T21:59:42.368Z,50.02
2023-04-17T22:02:09.032Z,49.21
2023-04-17T22:04:35.588Z,50.88
2023-04-17T22:07:02.299Z,49.99
2023-04-17T22:09:29.284Z,51.57
2023-04-17T22:11:56.786Z,51.88
2023-04-17T22:14:23.466Z,51.06
2023-04-17T22:16:50.301Z,51.33
2023-04-17T22:19:16.858Z,52.22
2023-04-17T22:21:45.572Z,52.41
2023-04-17T22:24:12.483Z,51.59
2023-04-17T22:26:39.187Z,51.66
2023-04-17T22:29:06.404Z,51.97
2023-04-17T22:31:33.652Z,52.67
2023-04-17T22:34:00.289Z,51.39
2023-04-17T22:36:27.309Z,52.09
2023-04-17T22:38:53.930Z,52.52
2023-04-17T22:41:20.766Z,53.12
2023-04-17T22:43:50.531Z,52.64
2023-04-17T22:46:17.195Z,53.93
2023-04-17T22:48:47.198Z,53.58
2023-04-17T22:51:15.120Z,52.72
2023-04-17T22:53:42.969Z,52.51
2023-04-17T22:56:13.681Z,53.57
2023-04-17T22:58:40.352Z,53.02
2023-04-17T23:01:07.380Z,53.00
2023-04-17T23:03:34.908Z,53.31
2023-04-17T23:06:01.607Z,53.12
2023-04-17T23:08:29.827Z,52.70
2023-04-17T23:11:01.109Z,52.57
2023-04-17T23:13:28.306Z,52.68
2023-04-17T23:15:55.038Z,52.07
2023-04-17T23:18:21.677Z,52.51
2023-04-17T23:20:48.300Z,52.62
2023-04-17T23:23:15.312Z,53.23
2023-04-17T23:25:42.176Z,53.41
2023-04-17T23:28:08.838Z,52.24
2023-04-17T23:30:35.678Z,52.98
2023-04-17T23:33:02.714Z,52.88
2023-04-17T23:35:29.388Z,53.42
2023-04-17T23:37:55.958Z,51.33
2023-04-17T23:40:22.518Z,52.60
2023-04-17T23:42:49.099Z,52.71
2023-04-17T23:45:15.729Z,53.89
2023-04-17T23:47:42.526Z,53.29
2023-04-17T23:50:09.771Z,52.78
2023-04-17T23:52:36.658Z,53.35
2023-04-17T23:55:03.897Z,52.75
2023-04-17T23:57:30.868Z,52.79
